Airborne Airpark Wilmington US
ICAO: KILN
IATA: ILN
Category: Medium
Scheduled Services: No

Elevation: 1077 ft
TransAlt. 18000 ft.

Airport Communications:
DAYTON APP/DEP:118.85
ASOS:126.675
ATIS:124.925
CLNC DEL:125.6
CTAF:119.475
GND:121.6
WILMINGTON TWR:119.475

KILN Zoom In..

If you have problems with the map follow the link
https://www.worldairports.se/pages/airport.php?
ICAO=KILN

Runways:

(A) RW 04L length 10701 ft width 150 ft
ILS 110.70 / hdg 41

(B) RW 04R length 9000 ft width 150 ft
ILS 109.35 / hdg 41

(C) RW 22L length 9000 ft width 150 ft
ILS 109.35 / hdg 221

(D) RW 22R length 10701 ft width 150 ft
ILS 110.70 / hdg 221

Location; KILN
Day. 08 / Time. 18.54 Zulu
* Altimeter: 30.06
* Temperature: 10° c. 50°f.
* Wind from: 190° Speed 12 kn.
Dewpoint: 05° c.
Visibility: 10 Statute Miles.
Clouds: Overcast 5500 ft.

KILN 081854Z AUTO 19012KT 10SM OVC055 10/05 A3006 RMK AO2 SLP197 T01000050


Wind From 190°
Speed 12 kn.

 
 
jpsmedia worldairports.se 2019   terms of use